createdAt,value
2018-08-11T00:02:10.173Z,2.60
2018-08-11T00:04:39.148Z,2.60
2018-08-11T00:07:07.984Z,2.60
2018-08-11T00:09:36.973Z,2.97
2018-08-11T00:12:06.456Z,2.50
2018-08-11T00:14:35.310Z,2.90
2018-08-11T00:17:04.137Z,2.80
2018-08-11T00:19:32.987Z,2.77
2018-08-11T00:22:01.904Z,2.70
2018-08-11T00:24:30.852Z,2.83
2018-08-11T00:27:00.003Z,3.00
2018-08-11T00:29:28.912Z,2.83
2018-08-11T00:31:57.772Z,2.93
2018-08-11T00:34:26.860Z,3.03
2018-08-11T00:36:55.775Z,2.73
2018-08-11T00:39:24.761Z,2.97
2018-08-11T00:41:53.612Z,2.97
2018-08-11T00:44:22.516Z,2.90
2018-08-11T00:46:51.357Z,3.40
2018-08-11T00:49:20.332Z,3.27
2018-08-11T00:51:49.247Z,3.20
2018-08-11T00:54:18.213Z,3.20
2018-08-11T00:56:47.666Z,3.13
2018-08-11T00:59:16.536Z,3.17
2018-08-11T01:01:45.372Z,3.43
2018-08-11T01:04:14.775Z,3.30
2018-08-11T01:06:43.739Z,3.30
2018-08-11T01:09:12.765Z,3.40
2018-08-11T01:11:42.029Z,3.33
2018-08-11T01:14:10.956Z,3.27
2018-08-11T01:16:39.925Z,4.17
2018-08-11T01:19:09.147Z,3.63
2018-08-11T01:21:37.953Z,3.53
2018-08-11T01:24:06.800Z,3.67
2018-08-11T01:26:36.109Z,3.67
2018-08-11T01:29:05.359Z,3.23
2018-08-11T01:31:34.373Z,3.50
2018-08-11T01:34:03.467Z,3.33
2018-08-11T01:36:32.388Z,3.93
2018-08-11T01:39:01.206Z,3.50
2018-08-11T01:41:30.521Z,4.40
2018-08-11T01:43:59.438Z,4.93
2018-08-11T01:46:28.312Z,4.93
2018-08-11T01:48:57.263Z,3.70
2018-08-11T01:51:26.133Z,3.47
2018-08-11T01:53:54.973Z,3.80
2018-08-11T01:56:24.227Z,3.93
2018-08-11T01:58:53.129Z,3.47
2018-08-11T02:01:22.002Z,3.97
2018-08-11T02:03:51.253Z,3.90
2018-08-11T02:06:20.269Z,3.50
2018-08-11T02:08:49.036Z,3.80
2018-08-11T02:11:18.385Z,4.13
2018-08-11T02:13:47.280Z,4.10
2018-08-11T02:16:16.182Z,4.33
2018-08-11T02:18:45.473Z,4.07
2018-08-11T02:21:14.412Z,4.33
2018-08-11T02:23:43.265Z,3.90
2018-08-11T02:26:12.163Z,4.53
2018-08-11T02:28:41.102Z,4.53
2018-08-11T02:31:09.890Z,4.37
2018-08-11T02:33:38.762Z,3.97
2018-08-11T02:36:08.122Z,4.00
2018-08-11T02:38:37.030Z,4.47
2018-08-11T02:41:06.132Z,4.23
2018-08-11T02:43:34.862Z,3.97
2018-08-11T02:46:03.730Z,4.23
2018-08-11T02:48:32.649Z,4.23
2018-08-11T02:51:01.502Z,3.93
2018-08-11T02:53:30.320Z,4.40
2018-08-11T02:55:59.193Z,3.60
2018-08-11T02:58:28.007Z,4.20
2018-08-11T03:00:56.967Z,3.73
2018-08-11T03:03:26.106Z,3.60
2018-08-11T03:05:54.926Z,3.90
2018-08-11T03:08:23.855Z,3.70
2018-08-11T03:10:53.373Z,4.17
2018-08-11T03:13:25.171Z,4.50
2018-08-11T03:15:54.439Z,4.80
2018-08-11T03:18:23.427Z,4.47
2018-08-11T03:20:52.317Z,4.57
2018-08-11T03:23:21.212Z,4.30
2018-08-11T03:25:50.089Z,4.73
2018-08-11T03:28:18.903Z,4.40
2018-08-11T03:30:47.951Z,4.17
2018-08-11T03:33:16.738Z,4.37
2018-08-11T03:35:45.582Z,4.57
2018-08-11T03:38:14.451Z,4.73
2018-08-11T03:40:43.200Z,4.23
2018-08-11T03:43:12.072Z,4.23
2018-08-11T03:45:41.274Z,3.80
2018-08-11T03:48:10.119Z,4.43
2018-08-11T03:50:39.019Z,4.40
2018-08-11T03:53:08.223Z,4.20
2018-08-11T03:55:37.147Z,3.70
2018-08-11T03:58:06.061Z,5.17
2018-08-11T04:00:35.386Z,3.93
2018-08-11T04:03:04.265Z,4.73
2018-08-11T04:05:33.086Z,4.27
2018-08-11T04:08:01.937Z,4.60
2018-08-11T04:10:31.062Z,3.87
2018-08-11T04:13:00.009Z,4.53
2018-08-11T04:15:29.352Z,4.70
2018-08-11T04:17:58.237Z,3.77
2018-08-11T04:20:27.259Z,4.50
2018-08-11T04:22:56.323Z,3.97
2018-08-11T04:25:23.926Z,3.87
2018-08-11T04:27:52.752Z,3.97
2018-08-11T04:30:22.110Z,4.37
2018-08-11T04:32:50.977Z,4.43
2018-08-11T04:35:19.808Z,3.60
2018-08-11T04:37:48.955Z,3.40
2018-08-11T04:40:17.865Z,3.43
2018-08-11T04:42:46.670Z,3.87
2018-08-11T04:45:15.821Z,4.20
2018-08-11T04:47:44.781Z,4.43
2018-08-11T04:50:13.700Z,3.83
2018-08-11T04:52:42.636Z,3.97
2018-08-11T04:55:11.471Z,3.30
2018-08-11T04:57:40.464Z,4.10
2018-08-11T05:00:10.021Z,6.17
2018-08-11T05:02:38.899Z,6.50
2018-08-11T05:05:08.318Z,5.13
2018-08-11T05:07:37.782Z,5.97
2018-08-11T05:10:07.409Z,3.70
2018-08-11T05:12:36.133Z,4.33
2018-08-11T05:15:05.830Z,3.60
2018-08-11T05:17:34.697Z,4.07
2018-08-11T05:20:03.637Z,4.70
2018-08-11T05:22:32.842Z,4.17
2018-08-11T05:25:01.798Z,4.37
2018-08-11T05:27:30.719Z,4.03
2018-08-11T05:29:59.768Z,4.20
2018-08-11T05:32:28.617Z,3.87
2018-08-11T05:34:58.471Z,4.13
2018-08-11T05:37:27.796Z,3.87
2018-08-11T05:39:56.541Z,4.28
2018-08-11T05:42:25.309Z,4.12
2018-08-11T05:44:54.656Z,3.90
2018-08-11T05:47:23.422Z,4.10
2018-08-11T05:49:52.502Z,3.35
2018-08-11T05:52:21.676Z,4.67
2018-08-11T05:54:50.623Z,3.85
2018-08-11T05:57:19.440Z,3.75
2018-08-11T05:59:48.314Z,4.80
2018-08-11T06:02:17.152Z,3.67
2018-08-11T06:04:46.150Z,4.53
2018-08-11T06:07:15.467Z,4.37
2018-08-11T06:09:44.253Z,4.50
2018-08-11T06:12:13.245Z,9.25
2018-08-11T06:14:42.574Z,10.03
2018-08-11T06:17:11.309Z,4.80
2018-08-11T06:19:40.108Z,4.58
2018-08-11T06:22:08.969Z,10.70
2018-08-11T06:24:37.881Z,5.35
2018-08-11T06:27:06.913Z,4.53
2018-08-11T06:29:35.889Z,4.37
2018-08-11T06:32:04.895Z,12.50
2018-08-11T06:34:33.719Z,30.97
2018-08-11T06:37:02.639Z,33.18
2018-08-11T06:39:31.353Z,16.37
2018-08-11T06:42:00.256Z,7.03
2018-08-11T06:44:29.125Z,3.87
2018-08-11T06:46:58.039Z,3.67
2018-08-11T06:49:26.919Z,4.33
2018-08-11T06:51:56.113Z,3.70
2018-08-11T06:54:25.083Z,3.30
2018-08-11T06:56:54.005Z,3.22
2018-08-11T06:59:23.353Z,3.67
2018-08-11T07:01:52.235Z,3.75
2018-08-11T07:04:21.075Z,3.70
2018-08-11T07:06:50.023Z,3.67
2018-08-11T07:09:19.025Z,3.42
2018-08-11T07:11:47.889Z,4.65
2018-08-11T07:14:16.673Z,3.62
2018-08-11T07:16:45.617Z,3.17
2018-08-11T07:19:14.611Z,5.25
2018-08-11T07:21:43.535Z,4.08
2018-08-11T07:24:12.382Z,3.30
2018-08-11T07:26:41.229Z,2.85
2018-08-11T07:29:10.076Z,2.47
2018-08-11T07:31:39.006Z,2.20
2018-08-11T07:34:07.900Z,3.37
2018-08-11T07:36:37.341Z,3.02
2018-08-11T07:39:08.168Z,2.70
2018-08-11T07:41:36.992Z,3.08
2018-08-11T07:44:05.868Z,2.67
2018-08-11T07:46:34.820Z,3.37
2018-08-11T07:49:03.675Z,2.87
2018-08-11T07:51:32.612Z,2.70
2018-08-11T07:54:01.457Z,2.72
2018-08-11T07:56:30.289Z,3.22
2018-08-11T07:58:59.223Z,3.05
2018-08-11T08:01:28.199Z,3.40
2018-08-11T08:03:56.989Z,2.85
2018-08-11T08:06:25.840Z,3.37
2018-08-11T08:08:54.743Z,2.85
2018-08-11T08:11:23.563Z,3.67
2018-08-11T08:13:52.879Z,3.35
2018-08-11T08:16:21.860Z,3.58
2018-08-11T08:18:50.740Z,2.92
2018-08-11T08:21:19.994Z,2.40
2018-08-11T08:23:48.866Z,2.67
2018-08-11T08:26:17.878Z,2.95
2018-08-11T08:28:46.594Z,3.00
2018-08-11T08:31:15.509Z,3.02
2018-08-11T08:33:44.303Z,3.12
2018-08-11T08:36:13.685Z,2.62
2018-08-11T08:38:43.475Z,2.95
2018-08-11T08:41:12.302Z,2.70
2018-08-11T08:43:41.783Z,3.37
2018-08-11T08:46:10.609Z,3.12
2018-08-11T08:48:39.570Z,2.55
2018-08-11T08:51:09.123Z,3.22
2018-08-11T08:53:38.091Z,2.77
2018-08-11T08:56:06.990Z,2.52
2018-08-11T08:58:35.937Z,2.98
2018-08-11T09:01:04.851Z,2.83
2018-08-11T09:03:33.665Z,2.83
2018-08-11T09:06:03.027Z,2.72
2018-08-11T09:08:31.932Z,2.75
2018-08-11T09:11:00.812Z,1.92
2018-08-11T09:13:30.085Z,2.80
2018-08-11T09:15:58.992Z,2.12
2018-08-11T09:18:27.983Z,2.55
2018-08-11T09:20:57.355Z,2.15
2018-08-11T09:23:26.217Z,2.22
2018-08-11T09:25:55.101Z,2.50
2018-08-11T09:28:24.432Z,2.50
2018-08-11T09:30:53.252Z,2.30
2018-08-11T09:33:22.075Z,2.00
2018-08-11T09:35:51.265Z,2.35
2018-08-11T09:38:20.238Z,2.02
2018-08-11T09:40:49.427Z,2.20
2018-08-11T09:43:18.374Z,2.50
2018-08-11T09:45:47.311Z,2.30
2018-08-11T09:48:16.172Z,2.60
2018-08-11T09:50:45.129Z,2.47
2018-08-11T09:53:13.996Z,2.95
2018-08-11T09:55:42.763Z,2.80
2018-08-11T09:58:12.505Z,2.45
2018-08-11T10:00:46.409Z,2.15
2018-08-11T10:03:15.817Z,1.90
2018-08-11T10:05:44.774Z,1.92
2018-08-11T10:08:13.670Z,2.30
2018-08-11T10:10:42.937Z,2.33
2018-08-11T10:13:11.859Z,2.47
2018-08-11T10:15:40.856Z,2.20
2018-08-11T10:18:10.012Z,2.15
2018-08-11T10:20:38.855Z,2.02
2018-08-11T10:23:07.672Z,2.27
2018-08-11T10:25:36.532Z,2.12
2018-08-11T10:28:05.449Z,2.10
2018-08-11T10:30:34.319Z,2.17
2018-08-11T10:33:03.082Z,1.87
2018-08-11T10:35:31.808Z,2.00
2018-08-11T10:38:00.717Z,1.95
2018-08-11T10:40:29.684Z,2.20
2018-08-11T10:42:58.604Z,2.22
2018-08-11T10:45:27.424Z,2.15
2018-08-11T10:47:56.221Z,2.27
2018-08-11T10:50:25.179Z,2.08
2018-08-11T10:52:54.000Z,2.05
2018-08-11T10:55:23.289Z,2.55
2018-08-11T10:57:52.152Z,2.25
2018-08-11T11:00:20.965Z,1.90
2018-08-11T11:02:49.913Z,2.00
2018-08-11T11:05:18.741Z,2.10
2018-08-11T11:07:47.525Z,2.60
2018-08-11T11:10:16.924Z,2.27
2018-08-11T11:12:45.825Z,2.22
2018-08-11T11:15:14.735Z,2.40
2018-08-11T11:17:43.892Z,3.12
2018-08-11T11:20:13.141Z,2.42
2018-08-11T11:22:42.505Z,2.70
2018-08-11T11:25:11.990Z,2.22
2018-08-11T11:27:41.141Z,2.15
2018-08-11T11:30:10.045Z,1.67
2018-08-11T11:32:38.822Z,2.00
2018-08-11T11:35:07.968Z,2.00
2018-08-11T11:37:36.973Z,2.40
2018-08-11T11:40:07.075Z,2.87
2018-08-11T11:42:35.939Z,2.27
2018-08-11T11:45:04.955Z,2.15
2018-08-11T11:47:34.240Z,1.67
2018-08-11T11:50:03.255Z,2.00
2018-08-11T11:52:32.116Z,1.60
2018-08-11T11:55:01.094Z,1.77
2018-08-11T11:57:29.940Z,1.95
2018-08-11T11:59:58.841Z,2.40
2018-08-11T12:02:28.085Z,1.80
2018-08-11T12:04:56.912Z,2.00
2018-08-11T12:07:25.763Z,2.50
2018-08-11T12:09:55.063Z,1.85
2018-08-11T12:12:23.931Z,2.47
2018-08-11T12:14:52.796Z,2.35
2018-08-11T12:17:21.943Z,1.85
2018-08-11T12:19:50.832Z,3.10
2018-08-11T12:22:19.565Z,1.82
2018-08-11T12:24:48.488Z,1.60
2018-08-11T12:27:17.293Z,2.22
2018-08-11T12:29:46.290Z,2.08
2018-08-11T12:32:15.441Z,2.00
2018-08-11T12:34:44.288Z,1.98
2018-08-11T12:37:13.197Z,2.65
2018-08-11T12:39:42.536Z,1.70
2018-08-11T12:42:11.443Z,1.60
2018-08-11T12:44:40.311Z,1.47
2018-08-11T12:47:09.615Z,2.00
2018-08-11T12:49:38.496Z,1.72
2018-08-11T12:52:07.345Z,1.80
2018-08-11T12:54:36.212Z,1.85
2018-08-11T12:57:05.252Z,2.52
2018-08-11T12:59:34.064Z,1.52
2018-08-11T13:02:03.091Z,1.30
2018-08-11T13:04:31.966Z,3.15
2018-08-11T13:07:00.782Z,2.30
2018-08-11T13:09:30.117Z,1.80
2018-08-11T13:11:58.978Z,2.08
2018-08-11T13:14:27.795Z,1.80
2018-08-11T13:16:57.908Z,2.00
2018-08-11T13:19:26.816Z,2.10
2018-08-11T13:21:55.854Z,1.50
2018-08-11T13:24:24.984Z,1.67
2018-08-11T13:26:53.816Z,1.45
2018-08-11T13:29:22.709Z,1.52
2018-08-11T13:31:51.650Z,2.72
2018-08-11T13:34:20.509Z,1.75
2018-08-11T13:36:49.361Z,1.52
2018-08-11T13:39:18.176Z,1.65
2018-08-11T13:41:49.023Z,1.95
2018-08-11T13:44:18.995Z,2.12
2018-08-11T13:46:47.876Z,2.02
2018-08-11T13:49:16.690Z,1.27
2018-08-11T13:51:45.737Z,1.98
2018-08-11T13:54:14.486Z,1.60
2018-08-11T13:56:43.328Z,1.80
2018-08-11T13:59:12.234Z,1.42
2018-08-11T14:01:40.965Z,1.50
2018-08-11T14:04:09.898Z,3.33
2018-08-11T14:06:39.153Z,1.50
2018-08-11T14:09:09.104Z,1.92
2018-08-11T14:11:37.997Z,1.30
2018-08-11T14:14:07.247Z,1.60
2018-08-11T14:16:36.125Z,1.52
2018-08-11T14:19:05.008Z,1.80
2018-08-11T14:21:34.316Z,2.17
2018-08-11T14:24:03.263Z,1.85
2018-08-11T14:26:32.163Z,1.70
2018-08-11T14:29:01.158Z,1.30
2018-08-11T14:31:29.929Z,4.12
2018-08-11T14:33:58.750Z,1.80
2018-08-11T14:36:27.618Z,1.77
2018-08-11T14:38:56.476Z,2.30
2018-08-11T14:41:25.383Z,1.90
2018-08-11T14:43:54.247Z,2.35
2018-08-11T14:46:23.197Z,1.82
2018-08-11T14:48:52.054Z,1.70
2018-08-11T14:51:20.918Z,1.80
2018-08-11T14:53:49.779Z,2.20
2018-08-11T14:56:18.762Z,2.83
2018-08-11T14:58:47.713Z,2.50
2018-08-11T15:01:16.569Z,1.85
2018-08-11T15:03:45.502Z,1.62
2018-08-11T15:06:14.826Z,2.05
2018-08-11T15:08:43.731Z,2.30
2018-08-11T15:11:12.549Z,1.80
2018-08-11T15:13:41.661Z,2.08
2018-08-11T15:16:10.518Z,1.90
2018-08-11T15:18:39.644Z,1.42
2018-08-11T15:21:09.062Z,2.17
2018-08-11T15:23:37.875Z,1.90
2018-08-11T15:26:06.897Z,2.92
2018-08-11T15:28:35.746Z,1.65
2018-08-11T15:31:04.564Z,2.92
2018-08-11T15:33:33.508Z,4.00
2018-08-11T15:36:03.003Z,2.30
2018-08-11T15:38:31.836Z,2.55
2018-08-11T15:41:00.640Z,2.55
2018-08-11T15:43:29.876Z,2.27
2018-08-11T15:45:58.778Z,2.42
2018-08-11T15:48:27.549Z,2.33
2018-08-11T15:50:56.491Z,2.62
2018-08-11T15:53:25.274Z,3.65
2018-08-11T15:55:54.032Z,4.45
2018-08-11T15:58:23.410Z,3.72
2018-08-11T16:00:52.333Z,2.77
2018-08-11T16:03:21.310Z,4.40
2018-08-11T16:05:50.503Z,3.87
2018-08-11T16:08:19.302Z,9.50
2018-08-11T16:10:48.123Z,3.75
2018-08-11T16:13:17.344Z,3.50
2018-08-11T16:15:46.192Z,2.58
2018-08-11T16:18:15.087Z,2.70
2018-08-11T16:20:44.435Z,2.62
2018-08-11T16:23:13.225Z,2.20
2018-08-11T16:25:42.051Z,2.33
2018-08-11T16:28:11.304Z,2.65
2018-08-11T16:30:40.222Z,2.77
2018-08-11T16:33:09.059Z,2.00
2018-08-11T16:35:38.869Z,2.00
2018-08-11T16:38:08.246Z,2.40
2018-08-11T16:40:36.985Z,2.00
2018-08-11T16:43:06.275Z,2.42
2018-08-11T16:45:35.243Z,3.00
2018-08-11T16:48:04.159Z,2.98
2018-08-11T16:50:32.990Z,2.90
2018-08-11T16:53:01.875Z,2.52
2018-08-11T16:55:30.866Z,6.37
2018-08-11T16:58:00.192Z,8.63
2018-08-11T17:00:28.977Z,19.17
2018-08-11T17:02:57.810Z,12.53
2018-08-11T17:05:26.678Z,7.53
2018-08-11T17:07:55.476Z,6.25
2018-08-11T17:10:24.369Z,6.15
2018-08-11T17:12:53.228Z,4.12
2018-08-11T17:15:21.969Z,4.70
2018-08-11T17:17:50.831Z,3.27
2018-08-11T17:20:19.823Z,3.90
2018-08-11T17:22:48.613Z,4.25
2018-08-11T17:25:17.516Z,4.17
2018-08-11T17:27:46.336Z,3.95
2018-08-11T17:30:15.264Z,4.85
2018-08-11T17:32:44.073Z,4.85
2018-08-11T17:35:13.348Z,5.20
2018-08-11T17:37:42.154Z,4.50
2018-08-11T17:40:11.025Z,4.65
2018-08-11T17:42:39.917Z,4.97
2018-08-11T17:45:08.775Z,4.17
2018-08-11T17:47:37.566Z,4.25
2018-08-11T17:50:06.824Z,3.40
2018-08-11T17:52:35.676Z,4.50
2018-08-11T17:55:04.496Z,4.62
2018-08-11T17:57:33.741Z,4.80
2018-08-11T18:00:02.603Z,4.50
2018-08-11T18:02:31.596Z,5.33
2018-08-11T18:05:01.053Z,5.33
2018-08-11T18:07:29.982Z,6.80
2018-08-11T18:09:58.945Z,13.98
2018-08-11T18:12:28.283Z,6.45
2018-08-11T18:14:57.159Z,4.12
2018-08-11T18:17:26.317Z,4.30
2018-08-11T18:19:55.590Z,4.12
2018-08-11T18:22:24.440Z,4.05
2018-08-11T18:24:53.251Z,5.10
2018-08-11T18:27:22.572Z,5.00
2018-08-11T18:29:51.350Z,5.87
2018-08-11T18:32:20.304Z,6.12
2018-08-11T18:34:49.524Z,4.10
2018-08-11T18:37:18.299Z,4.15
2018-08-11T18:39:47.155Z,3.72
2018-08-11T18:42:17.327Z,4.10
2018-08-11T18:44:46.074Z,4.20
2018-08-11T18:47:14.976Z,5.05
2018-08-11T18:49:43.928Z,4.50
2018-08-11T18:52:12.886Z,3.62
2018-08-11T18:54:41.640Z,3.42
2018-08-11T18:57:10.969Z,3.27
2018-08-11T18:59:39.857Z,5.37
2018-08-11T19:02:08.823Z,3.17
2018-08-11T19:04:37.721Z,2.98
2018-08-11T19:07:07.043Z,20.50
2018-08-11T19:09:35.994Z,3.98
2018-08-11T19:12:06.061Z,2.98
2018-08-11T19:14:34.973Z,3.17
2018-08-11T19:17:03.847Z,2.77
2018-08-11T19:19:32.834Z,3.02
2018-08-11T19:22:01.686Z,3.00
2018-08-11T19:24:30.615Z,2.53
2018-08-11T19:26:59.500Z,3.08
2018-08-11T19:29:28.489Z,3.57
2018-08-11T19:31:57.328Z,6.40
2018-08-11T19:34:26.288Z,6.47
2018-08-11T19:36:55.309Z,3.40
2018-08-11T19:39:24.211Z,3.10
2018-08-11T19:41:53.549Z,3.27
2018-08-11T19:44:22.405Z,4.10
2018-08-11T19:46:51.297Z,3.57
2018-08-11T19:49:21.266Z,13.73
2018-08-11T19:51:50.048Z,5.13
2018-08-11T19:54:18.879Z,3.30
2018-08-11T19:56:48.141Z,3.37
2018-08-11T19:59:17.073Z,3.93
2018-08-11T20:01:46.053Z,3.70
2018-08-11T20:04:16.009Z,3.63
2018-08-11T20:06:45.880Z,4.63
2018-08-11T20:09:14.708Z,4.70
2018-08-11T20:11:43.939Z,3.07
2018-08-11T20:14:12.872Z,3.90
2018-08-11T20:16:41.777Z,3.33
2018-08-11T20:19:10.847Z,3.60
2018-08-11T20:21:39.666Z,3.57
2018-08-11T20:24:08.496Z,3.90
2018-08-11T20:26:37.890Z,3.83
2018-08-11T20:29:06.773Z,3.50
2018-08-11T20:31:35.638Z,3.92
2018-08-11T20:34:04.651Z,3.70
2018-08-11T20:36:33.680Z,4.03
2018-08-11T20:39:02.680Z,3.27
2018-08-11T20:41:31.904Z,3.20
2018-08-11T20:44:00.841Z,3.10
2018-08-11T20:46:29.564Z,3.40
2018-08-11T20:48:58.862Z,3.10
2018-08-11T20:51:28.063Z,3.47
2018-08-11T20:53:57.004Z,3.47
2018-08-11T20:56:26.089Z,3.40
2018-08-11T20:58:54.909Z,3.77
2018-08-11T21:01:23.718Z,3.60
2018-08-11T21:03:53.006Z,3.53
2018-08-11T21:06:21.890Z,4.23
2018-08-11T21:08:50.798Z,3.43
2018-08-11T21:11:19.844Z,3.80
2018-08-11T21:13:48.773Z,3.77
2018-08-11T21:16:17.789Z,4.20
2018-08-11T21:18:46.765Z,3.83
2018-08-11T21:21:15.729Z,3.73
2018-08-11T21:23:44.724Z,3.30
2018-08-11T21:26:14.057Z,3.07
2018-08-11T21:28:42.931Z,2.80
2018-08-11T21:31:11.784Z,2.57
2018-08-11T21:33:40.636Z,2.90
2018-08-11T21:36:09.501Z,2.80
2018-08-11T21:38:38.369Z,2.90
2018-08-11T21:41:07.605Z,3.40
2018-08-11T21:43:36.554Z,3.00
2018-08-11T21:46:05.946Z,3.10
2018-08-11T21:48:34.877Z,3.17
2018-08-11T21:51:03.645Z,3.57
2018-08-11T21:53:32.496Z,3.67
2018-08-11T21:56:01.948Z,3.63
2018-08-11T21:58:30.845Z,3.57
2018-08-11T22:01:07.440Z,3.67
2018-08-11T22:03:36.281Z,3.40
2018-08-11T22:06:05.139Z,3.37
2018-08-11T22:08:34.396Z,3.40
2018-08-11T22:11:03.288Z,3.87
2018-08-11T22:13:32.230Z,2.83
2018-08-11T22:16:01.658Z,3.40
2018-08-11T22:18:30.564Z,3.70
2018-08-11T22:20:59.487Z,3.00
2018-08-11T22:23:28.465Z,3.30
2018-08-11T22:25:57.307Z,3.10
2018-08-11T22:28:26.254Z,3.10
2018-08-11T22:30:55.613Z,3.10
2018-08-11T22:33:24.581Z,3.30
2018-08-11T22:35:53.641Z,2.87
2018-08-11T22:38:23.277Z,3.43
2018-08-11T22:40:52.145Z,3.37
2018-08-11T22:43:21.146Z,3.53
2018-08-11T22:45:50.366Z,3.70
2018-08-11T22:48:19.279Z,3.43
2018-08-11T22:50:48.304Z,3.53
2018-08-11T22:53:17.130Z,3.23
2018-08-11T22:55:45.928Z,3.30
2018-08-11T22:58:14.845Z,3.47
2018-08-11T23:00:44.107Z,2.93
2018-08-11T23:03:13.116Z,3.13
2018-08-11T23:05:42.043Z,3.60
2018-08-11T23:08:10.916Z,3.33
2018-08-11T23:10:39.833Z,3.20
2018-08-11T23:13:08.628Z,3.53
2018-08-11T23:15:37.961Z,3.73
2018-08-11T23:18:07.029Z,3.30
2018-08-11T23:20:35.919Z,3.10
2018-08-11T23:23:05.133Z,3.40
2018-08-11T23:25:34.051Z,3.07
2018-08-11T23:28:03.059Z,3.03
2018-08-11T23:30:32.387Z,3.30
2018-08-11T23:33:01.340Z,3.13
2018-08-11T23:35:30.208Z,3.23
2018-08-11T23:37:59.550Z,3.20
2018-08-11T23:40:28.359Z,2.93
2018-08-11T23:42:57.338Z,2.97
2018-08-11T23:45:26.302Z,3.47
2018-08-11T23:47:55.239Z,3.17
2018-08-11T23:50:24.152Z,3.30
2018-08-11T23:52:53.093Z,3.67
2018-08-11T23:55:22.067Z,3.43
2018-08-11T23:57:51.002Z,3.50
